SXS7AM LOWW-LTBJ
Flight info
| Callsign | SXS7AM |
|---|---|
| Flight time | 1h 46m |
| Altitude | 39000 |
| Route | ARSIN DCT NALOX DCT BABIT DCT LULIK DCT BGD DCT NEPOS DCT NISVA DCT NIKTI UN127 RIKSO |
| Aircraft | B38M/M-SADE2E3GIJ4J7RW/LB1D1 |
Departure
| Time | 2026-05-07 14:26 |
|---|---|
| Airport | Vienna International Airport (LOWW) |
Arrival
| Time | 2026-05-07 16:12 |
|---|---|
| Airport | Adnan Menderes International Airport (LTBJ) |
| Time | Latitude | Longitude | Altitude | Speed | Heading |
|---|---|---|---|---|---|
| 2026-05-07 13:54 | 48.11780 | 16.56031 | 587 ft | 0 kts | 39° |
| 2026-05-07 14:15 | 48.11774 | 16.56023 | 587 ft | 2 kts | 39° |
| 2026-05-07 14:15 | 48.11763 | 16.56009 | 587 ft | 2 kts | 38° |
| 2026-05-07 14:15 | 48.11751 | 16.55995 | 586 ft | 2 kts | 39° |
| 2026-05-07 14:15 | 48.11740 | 16.55975 | 586 ft | 2 kts | 68° |
| 2026-05-07 14:16 | 48.11737 | 16.55952 | 585 ft | 2 kts | 90° |
| 2026-05-07 14:16 | 48.11739 | 16.55928 | 585 ft | 1 kts | 112° |
| 2026-05-07 14:16 | 48.11742 | 16.55919 | 585 ft | 1 kts | 118° |
| 2026-05-07 14:16 | 48.11743 | 16.55917 | 585 ft | 0 kts | 117° |
| 2026-05-07 14:20 | 48.11742 | 16.55917 | 585 ft | 0 kts | 117° |
| 2026-05-07 14:20 | 48.11727 | 16.55964 | 585 ft | 8 kts | 116° |
| 2026-05-07 14:20 | 48.11690 | 16.56079 | 588 ft | 16 kts | 116° |
| 2026-05-07 14:21 | 48.11634 | 16.56245 | 591 ft | 17 kts | 117° |
| 2026-05-07 14:21 | 48.11590 | 16.56390 | 595 ft | 12 kts | 116° |
| 2026-05-07 14:21 | 48.11558 | 16.56488 | 599 ft | 7 kts | 116° |
| 2026-05-07 14:21 | 48.11541 | 16.56542 | 600 ft | 4 kts | 116° |
| 2026-05-07 14:22 | 48.11521 | 16.56604 | 601 ft | 9 kts | 116° |
| 2026-05-07 14:22 | 48.11479 | 16.56730 | 603 ft | 17 kts | 117° |
| 2026-05-07 14:22 | 48.11427 | 16.56886 | 605 ft | 15 kts | 116° |
| 2026-05-07 14:22 | 48.11382 | 16.57023 | 606 ft | 13 kts | 116° |
| 2026-05-07 14:23 | 48.11342 | 16.57149 | 606 ft | 12 kts | 116° |
| 2026-05-07 14:23 | 48.11300 | 16.57276 | 603 ft | 13 kts | 116° |
| 2026-05-07 14:23 | 48.11256 | 16.57412 | 601 ft | 14 kts | 116° |
| 2026-05-07 14:23 | 48.11206 | 16.57561 | 598 ft | 15 kts | 117° |
| 2026-05-07 14:24 | 48.11175 | 16.57613 | 597 ft | 4 kts | 175° |
| 2026-05-07 14:24 | 48.11132 | 16.57588 | 598 ft | 8 kts | 212° |
| 2026-05-07 14:24 | 48.11080 | 16.57529 | 599 ft | 8 kts | 208° |
| 2026-05-07 14:24 | 48.11028 | 16.57489 | 599 ft | 6 kts | 206° |
| 2026-05-07 14:25 | 48.10991 | 16.57462 | 600 ft | 3 kts | 207° |
| 2026-05-07 14:25 | 48.10974 | 16.57449 | 601 ft | 1 kts | 207° |
| 2026-05-07 14:25 | 48.10955 | 16.57433 | 601 ft | 2 kts | 236° |
| 2026-05-07 14:25 | 48.10972 | 16.57359 | 602 ft | 14 kts | 295° |
| 2026-05-07 14:26 | 48.11144 | 16.56815 | 603 ft | 92 kts | 296° |
| 2026-05-07 14:26 | 48.11570 | 16.55514 | 583 ft | 157 kts | 296° |
| 2026-05-07 14:26 | 48.12194 | 16.53830 | 1037 ft | 176 kts | 301° |
| 2026-05-07 14:26 | 48.12718 | 16.52029 | 1798 ft | 182 kts | 270° |
| 2026-05-07 14:27 | 48.12268 | 16.50087 | 2453 ft | 190 kts | 234° |
| 2026-05-07 14:27 | 48.11127 | 16.48668 | 2896 ft | 211 kts | 207° |
| 2026-05-07 14:27 | 48.09607 | 16.47932 | 3404 ft | 228 kts | 196° |
| 2026-05-07 14:27 | 48.07785 | 16.47327 | 3993 ft | 246 kts | 188° |
| 2026-05-07 14:28 | 48.05842 | 16.47360 | 4655 ft | 261 kts | 174° |
| 2026-05-07 14:28 | 48.03855 | 16.47802 | 5307 ft | 274 kts | 172° |
| 2026-05-07 14:28 | 48.01758 | 16.48290 | 6163 ft | 278 kts | 173° |
| 2026-05-07 14:28 | 47.99628 | 16.48725 | 7076 ft | 278 kts | 174° |
| 2026-05-07 14:29 | 47.97580 | 16.48959 | 7893 ft | 280 kts | 184° |
| 2026-05-07 14:29 | 47.95495 | 16.48261 | 8759 ft | 280 kts | 206° |
| 2026-05-07 14:29 | 47.93609 | 16.46769 | 9601 ft | 282 kts | 211° |
| 2026-05-07 14:29 | 47.91696 | 16.45147 | 10433 ft | 285 kts | 210° |
| 2026-05-07 14:30 | 47.89658 | 16.43539 | 10953 ft | 301 kts | 205° |
| 2026-05-07 14:30 | 47.87357 | 16.42587 | 11470 ft | 318 kts | 184° |
| 2026-05-07 14:30 | 47.84782 | 16.43123 | 11975 ft | 335 kts | 167° |
| 2026-05-07 14:30 | 47.82143 | 16.44292 | 12451 ft | 350 kts | 165° |
| 2026-05-07 14:31 | 47.79545 | 16.45471 | 12831 ft | 366 kts | 166° |
| 2026-05-07 14:31 | 47.76882 | 16.46603 | 13200 ft | 379 kts | 167° |
| 2026-05-07 14:31 | 47.74068 | 16.47737 | 13835 ft | 386 kts | 168° |
| 2026-05-07 14:31 | 47.71271 | 16.48840 | 14654 ft | 386 kts | 168° |
| 2026-05-07 14:32 | 47.68459 | 16.50003 | 15446 ft | 389 kts | 165° |
| 2026-05-07 14:32 | 47.65850 | 16.51657 | 16220 ft | 395 kts | 153° |
| 2026-05-07 14:32 | 47.63581 | 16.54391 | 16931 ft | 406 kts | 135° |
| 2026-05-07 14:32 | 47.61945 | 16.57871 | 17591 ft | 416 kts | 123° |
| 2026-05-07 14:33 | 47.60641 | 16.61848 | 18214 ft | 421 kts | 119° |
| 2026-05-07 14:33 | 47.59387 | 16.65870 | 18881 ft | 423 kts | 121° |
| 2026-05-07 14:33 | 47.57945 | 16.69650 | 19434 ft | 422 kts | 129° |
| 2026-05-07 14:33 | 47.56067 | 16.73028 | 20164 ft | 415 kts | 140° |
| 2026-05-07 14:34 | 47.53840 | 16.75811 | 20663 ft | 414 kts | 150° |
| 2026-05-07 14:34 | 47.51296 | 16.77926 | 21235 ft | 411 kts | 161° |
| 2026-05-07 14:34 | 47.48552 | 16.79277 | 21843 ft | 407 kts | 171° |
| 2026-05-07 14:34 | 47.45773 | 16.79833 | 22351 ft | 406 kts | 181° |
| 2026-05-07 14:35 | 47.42894 | 16.79682 | 22900 ft | 406 kts | 188° |
| 2026-05-07 14:35 | 47.40043 | 16.79225 | 23442 ft | 408 kts | 188° |
| 2026-05-07 14:35 | 47.37031 | 16.78779 | 23945 ft | 412 kts | 187° |
| 2026-05-07 14:35 | 47.34003 | 16.78498 | 24516 ft | 415 kts | 185° |
| 2026-05-07 14:36 | 47.30968 | 16.78398 | 24994 ft | 419 kts | 184° |
| 2026-05-07 14:36 | 47.27950 | 16.78443 | 25535 ft | 421 kts | 182° |
| 2026-05-07 14:36 | 47.24807 | 16.78593 | 26077 ft | 423 kts | 181° |
| 2026-05-07 14:36 | 47.21663 | 16.78804 | 26531 ft | 427 kts | 181° |
| 2026-05-07 14:37 | 47.18417 | 16.79063 | 27044 ft | 429 kts | 181° |
| 2026-05-07 14:37 | 47.12219 | 16.79619 | 28472 ft | 421 kts | 180° |
| 2026-05-07 14:37 | 47.09292 | 16.79897 | 29182 ft | 416 kts | 181° |
| 2026-05-07 14:38 | 47.06362 | 16.80176 | 29798 ft | 413 kts | 181° |
| 2026-05-07 14:38 | 47.03445 | 16.80452 | 30256 ft | 413 kts | 181° |
| 2026-05-07 14:38 | 47.00308 | 16.80749 | 30818 ft | 411 kts | 181° |
| 2026-05-07 14:38 | 46.97201 | 16.81065 | 31288 ft | 412 kts | 180° |
| 2026-05-07 14:39 | 46.94090 | 16.81659 | 31727 ft | 416 kts | 175° |
| 2026-05-07 14:39 | 46.90954 | 16.82823 | 32197 ft | 422 kts | 168° |
| 2026-05-07 14:39 | 46.87909 | 16.84597 | 32701 ft | 427 kts | 161° |
| 2026-05-07 14:39 | 46.84888 | 16.87070 | 33191 ft | 434 kts | 154° |
| 2026-05-07 14:40 | 46.82175 | 16.90028 | 33708 ft | 440 kts | 147° |
| 2026-05-07 14:40 | 46.79663 | 16.93543 | 34040 ft | 450 kts | 140° |
| 2026-05-07 14:40 | 46.77464 | 16.97497 | 34532 ft | 456 kts | 133° |
| 2026-05-07 14:40 | 46.75596 | 17.01828 | 34947 ft | 462 kts | 126° |
| 2026-05-07 14:41 | 46.74084 | 17.06373 | 35175 ft | 469 kts | 120° |
| 2026-05-07 14:41 | 46.72770 | 17.10895 | 35400 ft | 471 kts | 120° |
| 2026-05-07 14:41 | 46.71469 | 17.15260 | 35629 ft | 468 kts | 121° |
| 2026-05-07 14:41 | 46.70064 | 17.19575 | 35795 ft | 468 kts | 123° |
| 2026-05-07 14:42 | 46.68521 | 17.23871 | 36014 ft | 466 kts | 125° |
| 2026-05-07 14:42 | 46.66875 | 17.28110 | 36191 ft | 465 kts | 127° |
| 2026-05-07 14:42 | 46.65155 | 17.32294 | 36404 ft | 466 kts | 127° |
| 2026-05-07 14:42 | 46.63351 | 17.36539 | 36678 ft | 466 kts | 128° |
| 2026-05-07 14:43 | 46.61584 | 17.40628 | 36997 ft | 465 kts | 128° |
| 2026-05-07 14:43 | 46.59805 | 17.44708 | 37248 ft | 465 kts | 128° |
| 2026-05-07 14:43 | 46.58024 | 17.48775 | 37497 ft | 465 kts | 128° |
| 2026-05-07 14:43 | 46.56249 | 17.52819 | 37749 ft | 466 kts | 128° |
| 2026-05-07 14:44 | 46.54512 | 17.56766 | 37973 ft | 466 kts | 128° |
| 2026-05-07 14:44 | 46.52761 | 17.60738 | 38217 ft | 466 kts | 127° |
| 2026-05-07 14:44 | 46.50976 | 17.64783 | 38433 ft | 467 kts | 127° |
| 2026-05-07 14:44 | 46.49180 | 17.68848 | 38646 ft | 467 kts | 128° |
| 2026-05-07 14:45 | 46.47379 | 17.72923 | 38862 ft | 466 kts | 128° |
| 2026-05-07 14:45 | 46.45620 | 17.76895 | 38982 ft | 468 kts | 128° |
| 2026-05-07 14:45 | 46.41984 | 17.85081 | 38973 ft | 468 kts | 128° |
| 2026-05-07 14:46 | 46.38428 | 17.93087 | 38972 ft | 468 kts | 128° |
| 2026-05-07 14:46 | 46.34887 | 18.01022 | 38992 ft | 468 kts | 128° |
| 2026-05-07 14:47 | 46.31256 | 18.09131 | 38992 ft | 467 kts | 128° |
| 2026-05-07 14:47 | 46.27598 | 18.17284 | 39007 ft | 466 kts | 128° |
| 2026-05-07 14:48 | 46.23942 | 18.25401 | 38987 ft | 467 kts | 128° |
| 2026-05-07 14:48 | 46.20276 | 18.33517 | 38988 ft | 467 kts | 128° |
| 2026-05-07 14:49 | 46.16638 | 18.41552 | 38983 ft | 467 kts | 127° |
| 2026-05-07 14:49 | 46.12964 | 18.49642 | 38991 ft | 467 kts | 128° |
| 2026-05-07 14:50 | 46.09290 | 18.57708 | 39001 ft | 466 kts | 127° |
| 2026-05-07 14:50 | 46.05617 | 18.65749 | 38983 ft | 466 kts | 128° |
| 2026-05-07 14:51 | 46.01907 | 18.73860 | 38992 ft | 467 kts | 128° |
| 2026-05-07 14:51 | 45.98328 | 18.81652 | 39002 ft | 466 kts | 128° |
| 2026-05-07 14:52 | 45.94486 | 18.89849 | 38994 ft | 465 kts | 130° |
| 2026-05-07 14:52 | 45.90193 | 18.97032 | 39000 ft | 460 kts | 141° |
| 2026-05-07 14:53 | 45.85413 | 19.03274 | 38992 ft | 457 kts | 144° |
| 2026-05-07 14:53 | 45.80549 | 19.09297 | 38994 ft | 457 kts | 144° |
| 2026-05-07 14:54 | 45.75525 | 19.15550 | 39000 ft | 457 kts | 143° |
| 2026-05-07 14:54 | 45.70643 | 19.21689 | 39001 ft | 457 kts | 143° |
| 2026-05-07 14:55 | 45.65873 | 19.27711 | 39006 ft | 457 kts | 143° |
| 2026-05-07 14:55 | 45.60961 | 19.33921 | 38999 ft | 457 kts | 143° |
| 2026-05-07 14:56 | 45.56099 | 19.40065 | 39000 ft | 457 kts | 143° |
| 2026-05-07 14:56 | 45.51250 | 19.46173 | 38999 ft | 457 kts | 143° |
| 2026-05-07 14:57 | 45.46365 | 19.52261 | 38997 ft | 458 kts | 143° |
| 2026-05-07 14:57 | 45.41501 | 19.58292 | 38998 ft | 458 kts | 143° |
| 2026-05-07 14:58 | 45.36651 | 19.64288 | 38996 ft | 458 kts | 143° |
| 2026-05-07 14:58 | 45.31811 | 19.70260 | 38998 ft | 459 kts | 143° |
| 2026-05-07 14:59 | 45.26924 | 19.76282 | 38992 ft | 457 kts | 143° |
| 2026-05-07 14:59 | 45.21970 | 19.82372 | 38993 ft | 459 kts | 143° |
| 2026-05-07 15:00 | 45.17016 | 19.88451 | 38993 ft | 457 kts | 143° |
| 2026-05-07 15:00 | 45.12024 | 19.94559 | 38996 ft | 458 kts | 143° |
| 2026-05-07 15:01 | 45.07002 | 20.00689 | 38995 ft | 459 kts | 143° |
| 2026-05-07 15:01 | 45.01974 | 20.06817 | 39009 ft | 459 kts | 143° |
| 2026-05-07 15:02 | 44.96997 | 20.12865 | 39007 ft | 458 kts | 143° |
| 2026-05-07 15:02 | 44.92055 | 20.18857 | 39009 ft | 458 kts | 143° |
| 2026-05-07 15:03 | 44.87107 | 20.24839 | 39013 ft | 458 kts | 143° |
| 2026-05-07 15:03 | 44.81972 | 20.31034 | 39009 ft | 459 kts | 143° |
| 2026-05-07 15:04 | 44.77070 | 20.37503 | 39011 ft | 461 kts | 139° |
| 2026-05-07 15:04 | 44.72438 | 20.44173 | 39021 ft | 462 kts | 138° |
| 2026-05-07 15:05 | 44.67853 | 20.50780 | 39018 ft | 463 kts | 138° |
| 2026-05-07 15:05 | 44.63183 | 20.57418 | 39019 ft | 462 kts | 138° |
| 2026-05-07 15:06 | 44.58514 | 20.63979 | 39011 ft | 461 kts | 138° |
| 2026-05-07 15:06 | 44.53797 | 20.70577 | 39018 ft | 461 kts | 139° |
| 2026-05-07 15:07 | 44.49152 | 20.77050 | 39015 ft | 461 kts | 139° |
| 2026-05-07 15:07 | 44.44407 | 20.83639 | 39008 ft | 462 kts | 139° |
| 2026-05-07 15:08 | 44.39580 | 20.90323 | 38994 ft | 461 kts | 139° |
| 2026-05-07 15:08 | 44.34670 | 20.97111 | 38993 ft | 461 kts | 139° |
| 2026-05-07 15:09 | 44.29762 | 21.03877 | 39008 ft | 461 kts | 139° |
| 2026-05-07 15:09 | 44.24824 | 21.10664 | 39007 ft | 462 kts | 139° |
| 2026-05-07 15:10 | 44.19831 | 21.17517 | 39002 ft | 462 kts | 139° |
| 2026-05-07 15:10 | 44.14808 | 21.24387 | 39003 ft | 463 kts | 139° |
| 2026-05-07 15:11 | 44.09849 | 21.31152 | 39000 ft | 461 kts | 139° |
| 2026-05-07 15:11 | 44.04956 | 21.37816 | 39005 ft | 463 kts | 139° |
| 2026-05-07 15:12 | 44.00027 | 21.44514 | 39016 ft | 461 kts | 139° |
| 2026-05-07 15:12 | 43.95090 | 21.51172 | 39024 ft | 463 kts | 139° |
| 2026-05-07 15:13 | 43.90133 | 21.57823 | 39028 ft | 463 kts | 139° |
| 2026-05-07 15:13 | 43.84956 | 21.64760 | 39043 ft | 463 kts | 139° |
| 2026-05-07 15:14 | 43.79739 | 21.71733 | 39049 ft | 462 kts | 140° |
| 2026-05-07 15:14 | 43.74506 | 21.78715 | 39047 ft | 462 kts | 140° |
| 2026-05-07 15:15 | 43.69320 | 21.85626 | 39054 ft | 462 kts | 140° |
| 2026-05-07 15:15 | 43.64125 | 21.92525 | 39056 ft | 464 kts | 140° |
| 2026-05-07 15:16 | 43.58970 | 21.99350 | 39059 ft | 463 kts | 140° |
| 2026-05-07 15:16 | 43.53927 | 22.06007 | 39073 ft | 464 kts | 140° |
| 2026-05-07 15:17 | 43.48682 | 22.12912 | 39069 ft | 464 kts | 140° |
| 2026-05-07 15:17 | 43.43429 | 22.19813 | 39069 ft | 465 kts | 140° |
| 2026-05-07 15:18 | 43.38167 | 22.26713 | 39058 ft | 466 kts | 140° |
| 2026-05-07 15:18 | 43.32880 | 22.33622 | 39049 ft | 465 kts | 140° |
| 2026-05-07 15:19 | 43.27634 | 22.40469 | 39054 ft | 467 kts | 140° |
| 2026-05-07 15:19 | 43.23550 | 22.45785 | 39048 ft | 467 kts | 140° |
| 2026-05-07 15:20 | 43.20128 | 22.50232 | 39064 ft | 468 kts | 140° |
| 2026-05-07 15:20 | 43.14939 | 22.56952 | 39063 ft | 467 kts | 140° |
| 2026-05-07 15:21 | 43.09821 | 22.63570 | 39066 ft | 469 kts | 139° |
| 2026-05-07 15:21 | 43.04776 | 22.70079 | 39073 ft | 467 kts | 140° |
| 2026-05-07 15:22 | 42.99808 | 22.76469 | 39071 ft | 468 kts | 140° |
| 2026-05-07 15:22 | 42.94806 | 22.82364 | 39068 ft | 464 kts | 147° |
| 2026-05-07 15:23 | 42.89384 | 22.87604 | 39077 ft | 464 kts | 150° |
| 2026-05-07 15:23 | 42.83216 | 22.93286 | 39089 ft | 467 kts | 150° |
| 2026-05-07 15:24 | 42.77059 | 22.99011 | 39089 ft | 466 kts | 149° |
| 2026-05-07 15:24 | 42.71254 | 23.04458 | 39094 ft | 467 kts | 149° |
| 2026-05-07 15:25 | 42.65344 | 23.10019 | 39092 ft | 467 kts | 149° |
| 2026-05-07 15:25 | 42.59453 | 23.15569 | 39092 ft | 466 kts | 149° |
| 2026-05-07 15:26 | 42.53739 | 23.20937 | 39101 ft | 468 kts | 149° |
| 2026-05-07 15:26 | 42.47916 | 23.26403 | 39112 ft | 467 kts | 149° |
| 2026-05-07 15:27 | 42.42030 | 23.31907 | 39117 ft | 469 kts | 149° |
| 2026-05-07 15:27 | 42.36189 | 23.37351 | 39119 ft | 469 kts | 149° |
| 2026-05-07 15:28 | 42.30517 | 23.42616 | 39113 ft | 468 kts | 149° |
| 2026-05-07 15:28 | 42.24708 | 23.48015 | 39119 ft | 470 kts | 149° |
| 2026-05-07 15:29 | 42.18927 | 23.53374 | 39117 ft | 471 kts | 148° |
| 2026-05-07 15:29 | 42.13061 | 23.58808 | 39115 ft | 468 kts | 148° |
| 2026-05-07 15:30 | 42.07352 | 23.64065 | 39123 ft | 472 kts | 148° |
| 2026-05-07 15:30 | 42.01711 | 23.69243 | 39125 ft | 469 kts | 149° |
| 2026-05-07 15:31 | 41.96246 | 23.74262 | 39147 ft | 472 kts | 149° |
| 2026-05-07 15:31 | 41.90749 | 23.79304 | 39142 ft | 471 kts | 149° |
| 2026-05-07 15:32 | 41.85299 | 23.84288 | 39142 ft | 473 kts | 149° |
| 2026-05-07 15:32 | 41.79776 | 23.89329 | 39143 ft | 474 kts | 149° |
| 2026-05-07 15:33 | 41.74230 | 23.94375 | 39144 ft | 475 kts | 149° |
| 2026-05-07 15:33 | 41.68684 | 23.99408 | 39124 ft | 476 kts | 149° |
| 2026-05-07 15:34 | 41.63197 | 24.04381 | 39116 ft | 477 kts | 149° |
| 2026-05-07 15:34 | 41.57665 | 24.09384 | 39099 ft | 475 kts | 149° |
| 2026-05-07 15:35 | 41.52145 | 24.14377 | 39119 ft | 478 kts | 149° |
| 2026-05-07 15:35 | 41.46624 | 24.19325 | 39103 ft | 475 kts | 150° |
| 2026-05-07 15:36 | 41.41069 | 24.24272 | 39121 ft | 480 kts | 150° |
| 2026-05-07 15:36 | 41.35516 | 24.29210 | 39115 ft | 479 kts | 149° |
| 2026-05-07 15:37 | 41.29935 | 24.34167 | 39094 ft | 478 kts | 149° |
| 2026-05-07 15:37 | 41.24398 | 24.39074 | 39079 ft | 478 kts | 149° |
| 2026-05-07 15:38 | 41.18763 | 24.43915 | 39065 ft | 477 kts | 153° |
| 2026-05-07 15:38 | 41.12893 | 24.47996 | 39057 ft | 474 kts | 158° |
| 2026-05-07 15:39 | 41.06857 | 24.51754 | 39061 ft | 476 kts | 159° |
| 2026-05-07 15:39 | 41.00738 | 24.55531 | 39053 ft | 474 kts | 159° |
| 2026-05-07 15:40 | 40.94756 | 24.59260 | 39055 ft | 477 kts | 158° |
| 2026-05-07 15:40 | 40.88777 | 24.63035 | 39069 ft | 478 kts | 158° |
| 2026-05-07 15:41 | 40.82826 | 24.66809 | 39058 ft | 474 kts | 158° |
| 2026-05-07 15:41 | 40.76872 | 24.70586 | 39053 ft | 479 kts | 159° |
| 2026-05-07 15:42 | 40.70873 | 24.74393 | 39050 ft | 478 kts | 159° |
| 2026-05-07 15:42 | 40.64806 | 24.78237 | 39053 ft | 480 kts | 158° |
| 2026-05-07 15:43 | 40.58694 | 24.82097 | 39050 ft | 480 kts | 159° |
| 2026-05-07 15:43 | 40.52511 | 24.85996 | 39047 ft | 481 kts | 159° |
| 2026-05-07 15:44 | 40.46429 | 24.89813 | 39051 ft | 482 kts | 158° |
| 2026-05-07 15:44 | 40.40353 | 24.93616 | 39045 ft | 484 kts | 159° |
| 2026-05-07 15:45 | 40.34317 | 24.97399 | 39050 ft | 483 kts | 158° |
| 2026-05-07 15:45 | 40.28231 | 25.01198 | 39049 ft | 485 kts | 159° |
| 2026-05-07 15:46 | 40.19080 | 25.06904 | 39053 ft | 482 kts | 159° |
| 2026-05-07 15:47 | 40.12947 | 25.10708 | 39056 ft | 486 kts | 159° |
| 2026-05-07 15:47 | 40.06774 | 25.14530 | 39055 ft | 489 kts | 159° |
| 2026-05-07 15:48 | 40.00519 | 25.18398 | 39073 ft | 487 kts | 159° |
| 2026-05-07 15:48 | 39.94405 | 25.22323 | 39064 ft | 489 kts | 154° |
| 2026-05-07 15:49 | 39.88693 | 25.27295 | 39066 ft | 496 kts | 144° |
| 2026-05-07 15:49 | 39.83393 | 25.33082 | 39085 ft | 498 kts | 141° |
| 2026-05-07 15:50 | 39.78220 | 25.39077 | 39078 ft | 498 kts | 140° |
| 2026-05-07 15:50 | 39.73121 | 25.44973 | 38964 ft | 488 kts | 140° |
| 2026-05-07 15:50 | 39.70584 | 25.47879 | 38394 ft | 486 kts | 140° |
| 2026-05-07 15:51 | 39.68030 | 25.50793 | 37492 ft | 489 kts | 140° |
| 2026-05-07 15:51 | 39.65500 | 25.53662 | 36876 ft | 485 kts | 141° |
| 2026-05-07 15:51 | 39.62872 | 25.56632 | 36269 ft | 482 kts | 141° |
| 2026-05-07 15:51 | 39.60350 | 25.59476 | 35703 ft | 482 kts | 141° |
| 2026-05-07 15:52 | 39.57589 | 25.62583 | 34894 ft | 485 kts | 141° |
| 2026-05-07 15:52 | 39.55012 | 25.65479 | 34170 ft | 486 kts | 141° |
| 2026-05-07 15:52 | 39.52426 | 25.68380 | 33289 ft | 487 kts | 141° |
| 2026-05-07 15:52 | 39.49836 | 25.71258 | 32812 ft | 480 kts | 141° |
| 2026-05-07 15:53 | 39.47293 | 25.74052 | 32545 ft | 481 kts | 141° |
| 2026-05-07 15:53 | 39.44762 | 25.76817 | 32192 ft | 483 kts | 141° |
| 2026-05-07 15:53 | 39.42157 | 25.79653 | 31486 ft | 487 kts | 141° |
| 2026-05-07 15:53 | 39.39600 | 25.82432 | 30703 ft | 485 kts | 141° |
| 2026-05-07 15:54 | 39.37017 | 25.85241 | 29865 ft | 475 kts | 140° |
| 2026-05-07 15:54 | 39.34529 | 25.87947 | 29067 ft | 464 kts | 140° |
| 2026-05-07 15:54 | 39.32098 | 25.90594 | 28270 ft | 454 kts | 141° |
| 2026-05-07 15:54 | 39.29649 | 25.93264 | 27454 ft | 445 kts | 141° |
| 2026-05-07 15:55 | 39.27252 | 25.95876 | 26645 ft | 438 kts | 140° |
| 2026-05-07 15:55 | 39.24891 | 25.98447 | 25834 ft | 430 kts | 141° |
| 2026-05-07 15:55 | 39.22640 | 26.00895 | 25052 ft | 423 kts | 141° |
| 2026-05-07 15:55 | 39.20420 | 26.03308 | 24266 ft | 416 kts | 141° |
| 2026-05-07 15:56 | 39.18220 | 26.05695 | 23484 ft | 410 kts | 141° |
| 2026-05-07 15:56 | 39.16059 | 26.08038 | 22716 ft | 404 kts | 141° |
| 2026-05-07 15:56 | 39.13927 | 26.10348 | 21959 ft | 398 kts | 141° |
| 2026-05-07 15:56 | 39.11814 | 26.12637 | 21225 ft | 399 kts | 141° |
| 2026-05-07 15:57 | 39.09710 | 26.14916 | 20505 ft | 396 kts | 141° |
| 2026-05-07 15:57 | 39.07613 | 26.17185 | 19799 ft | 389 kts | 141° |
| 2026-05-07 15:57 | 39.05578 | 26.19386 | 19111 ft | 382 kts | 141° |
| 2026-05-07 15:57 | 39.03519 | 26.21612 | 18397 ft | 376 kts | 141° |
| 2026-05-07 15:58 | 39.01526 | 26.23766 | 17680 ft | 373 kts | 142° |
| 2026-05-07 15:58 | 38.99535 | 26.25913 | 17084 ft | 371 kts | 141° |
| 2026-05-07 15:58 | 38.97557 | 26.28045 | 16454 ft | 368 kts | 141° |
| 2026-05-07 15:58 | 38.95598 | 26.30154 | 15831 ft | 363 kts | 141° |
| 2026-05-07 15:59 | 38.93657 | 26.32241 | 15232 ft | 359 kts | 141° |
| 2026-05-07 15:59 | 38.91737 | 26.34305 | 14598 ft | 355 kts | 141° |
| 2026-05-07 15:59 | 38.89831 | 26.36350 | 13953 ft | 351 kts | 141° |
| 2026-05-07 15:59 | 38.87912 | 26.38410 | 13367 ft | 346 kts | 140° |
| 2026-05-07 16:00 | 38.86051 | 26.40406 | 12756 ft | 339 kts | 140° |
| 2026-05-07 16:00 | 38.84244 | 26.42377 | 12212 ft | 334 kts | 136° |
| 2026-05-07 16:00 | 38.82673 | 26.44615 | 12127 ft | 347 kts | 125° |
| 2026-05-07 16:00 | 38.81399 | 26.47192 | 12040 ft | 335 kts | 118° |
| 2026-05-07 16:01 | 38.80300 | 26.49851 | 11551 ft | 325 kts | 116° |
| 2026-05-07 16:01 | 38.79324 | 26.52349 | 11252 ft | 310 kts | 116° |
| 2026-05-07 16:01 | 38.78364 | 26.54762 | 10997 ft | 298 kts | 116° |
| 2026-05-07 16:01 | 38.77399 | 26.57104 | 10635 ft | 296 kts | 117° |
| 2026-05-07 16:02 | 38.76419 | 26.59418 | 10441 ft | 294 kts | 117° |
| 2026-05-07 16:02 | 38.75439 | 26.61699 | 10378 ft | 294 kts | 118° |
| 2026-05-07 16:02 | 38.74443 | 26.64007 | 10227 ft | 294 kts | 118° |
| 2026-05-07 16:02 | 38.73461 | 26.66280 | 9989 ft | 290 kts | 118° |
| 2026-05-07 16:03 | 38.72498 | 26.68508 | 9830 ft | 282 kts | 118° |
| 2026-05-07 16:03 | 38.71559 | 26.70680 | 9635 ft | 279 kts | 118° |
| 2026-05-07 16:03 | 38.70620 | 26.72855 | 9371 ft | 277 kts | 118° |
| 2026-05-07 16:03 | 38.69688 | 26.75011 | 9081 ft | 274 kts | 118° |
| 2026-05-07 16:04 | 38.68771 | 26.77131 | 8741 ft | 273 kts | 118° |
| 2026-05-07 16:04 | 38.67810 | 26.79349 | 8409 ft | 271 kts | 118° |
| 2026-05-07 16:04 | 38.66824 | 26.81622 | 8028 ft | 270 kts | 118° |
| 2026-05-07 16:04 | 38.65868 | 26.83826 | 7708 ft | 267 kts | 118° |
| 2026-05-07 16:05 | 38.64926 | 26.85996 | 7384 ft | 265 kts | 118° |
| 2026-05-07 16:05 | 38.63936 | 26.88276 | 7013 ft | 264 kts | 118° |
| 2026-05-07 16:05 | 38.63030 | 26.90360 | 6723 ft | 261 kts | 118° |
| 2026-05-07 16:05 | 38.62152 | 26.92377 | 6385 ft | 260 kts | 118° |
| 2026-05-07 16:06 | 38.61257 | 26.94435 | 6061 ft | 258 kts | 118° |
| 2026-05-07 16:06 | 38.60359 | 26.96497 | 5728 ft | 257 kts | 118° |
| 2026-05-07 16:06 | 38.59458 | 26.98564 | 5414 ft | 255 kts | 118° |
| 2026-05-07 16:06 | 38.58586 | 27.00564 | 5085 ft | 254 kts | 119° |
| 2026-05-07 16:07 | 38.57707 | 27.02577 | 4762 ft | 252 kts | 119° |
| 2026-05-07 16:07 | 38.56817 | 27.04616 | 4681 ft | 239 kts | 118° |
| 2026-05-07 16:07 | 38.55921 | 27.06566 | 4625 ft | 236 kts | 125° |
| 2026-05-07 16:07 | 38.54792 | 27.08013 | 4548 ft | 231 kts | 152° |
| 2026-05-07 16:08 | 38.53260 | 27.08627 | 4553 ft | 228 kts | 170° |
| 2026-05-07 16:08 | 38.51696 | 27.08956 | 4467 ft | 231 kts | 170° |
| 2026-05-07 16:08 | 38.50108 | 27.09390 | 4228 ft | 229 kts | 167° |
| 2026-05-07 16:08 | 38.48590 | 27.09875 | 4025 ft | 222 kts | 166° |
| 2026-05-07 16:09 | 38.47107 | 27.10335 | 3825 ft | 217 kts | 167° |
| 2026-05-07 16:09 | 38.45627 | 27.10776 | 3502 ft | 218 kts | 167° |
| 2026-05-07 16:09 | 38.44160 | 27.11215 | 3196 ft | 219 kts | 166° |
| 2026-05-07 16:09 | 38.42679 | 27.11663 | 2878 ft | 217 kts | 166° |
| 2026-05-07 16:10 | 38.41215 | 27.12105 | 2596 ft | 210 kts | 167° |
| 2026-05-07 16:10 | 38.39774 | 27.12538 | 2272 ft | 191 kts | 167° |
| 2026-05-07 16:10 | 38.38369 | 27.12961 | 2033 ft | 175 kts | 168° |
| 2026-05-07 16:10 | 38.37052 | 27.13358 | 1765 ft | 159 kts | 169° |
| 2026-05-07 16:11 | 38.35812 | 27.13730 | 1497 ft | 156 kts | 169° |
| 2026-05-07 16:11 | 38.34607 | 27.14091 | 1262 ft | 155 kts | 169° |
| 2026-05-07 16:11 | 38.33404 | 27.14451 | 1022 ft | 154 kts | 169° |
| 2026-05-07 16:11 | 38.32216 | 27.14811 | 789 ft | 153 kts | 169° |
| 2026-05-07 16:12 | 38.31016 | 27.15156 | 571 ft | 151 kts | 169° |
| 2026-05-07 16:12 | 38.29874 | 27.15510 | 427 ft | 138 kts | 169° |
| 2026-05-07 16:12 | 38.29142 | 27.15725 | 417 ft | 51 kts | 167° |
| 2026-05-07 16:12 | 38.28909 | 27.15778 | 416 ft | 25 kts | 182° |
| 2026-05-07 16:13 | 38.28762 | 27.15739 | 412 ft | 0 kts | 196° |
| 2026-05-07 16:13 | 38.28757 | 27.15737 | 412 ft | 1 kts | 196° |
| 2026-05-07 16:13 | 38.28742 | 27.15732 | 412 ft | 2 kts | 196° |
| 2026-05-07 16:14 | 38.28724 | 27.15725 | 412 ft | 2 kts | 196° |
| 2026-05-07 16:14 | 38.28702 | 27.15717 | 412 ft | 3 kts | 197° |
| 2026-05-07 16:14 | 38.28679 | 27.15708 | 412 ft | 4 kts | 197° |
| 2026-05-07 16:14 | 38.28627 | 27.15687 | 411 ft | 9 kts | 199° |
| 2026-05-07 16:15 | 38.28583 | 27.15627 | 411 ft | 9 kts | 252° |
| 2026-05-07 16:15 | 38.28567 | 27.15552 | 411 ft | 7 kts | 255° |
| 2026-05-07 16:15 | 38.28556 | 27.15496 | 412 ft | 6 kts | 256° |
| 2026-05-07 16:15 | 38.28575 | 27.15438 | 414 ft | 9 kts | 327° |
| 2026-05-07 16:16 | 38.28648 | 27.15406 | 414 ft | 13 kts | 345° |
| 2026-05-07 16:16 | 38.28753 | 27.15374 | 415 ft | 16 kts | 346° |
| 2026-05-07 16:16 | 38.28862 | 27.15340 | 416 ft | 14 kts | 348° |
| 2026-05-07 16:16 | 38.28959 | 27.15313 | 416 ft | 13 kts | 347° |
| 2026-05-07 16:17 | 38.29013 | 27.15246 | 416 ft | 9 kts | 302° |
| 2026-05-07 16:17 | 38.29069 | 27.15212 | 416 ft | 11 kts | 348° |
| 2026-05-07 16:17 | 38.29162 | 27.15185 | 416 ft | 13 kts | 346° |
| 2026-05-07 16:17 | 38.29256 | 27.15157 | 414 ft | 14 kts | 347° |
| 2026-05-07 16:18 | 38.29351 | 27.15128 | 413 ft | 14 kts | 346° |
| 2026-05-07 16:18 | 38.29448 | 27.15099 | 413 ft | 13 kts | 346° |
| 2026-05-07 16:18 | 38.29504 | 27.15078 | 413 ft | 3 kts | 313° |
| 2026-05-07 16:18 | 38.29501 | 27.15049 | 413 ft | 3 kts | 257° |
| 2026-05-07 16:19 | 38.29495 | 27.15015 | 413 ft | 3 kts | 256° |
| 2026-05-07 16:19 | 38.29493 | 27.15001 | 413 ft | 0 kts | 256° |